RELACIONES PÚBLICAS

23/03/2017DÍA METEOROLÓGICO MUNDIAL 2017   Cada 23 de marzo la Organización Meteorológica Mundial (OMM) celebra la entrada en vigencia del Convenio mediante el cual fue creado, en 1950. Este día es conocido como el Día Meteorológico Mundial, y en él se celebra y destaca la importancia que los Servicios Meteorológicos e Hidrológicos Nacionales tienen en cada país, puesto que contribuyen al mantenimiento de la seguridad y el bienestar general. A su vez, a cada Día Meteorológico Mundial se le asigna un tema específico. Este año el tema elegido es " Entendiendo las nubes"; con el fin de resaltar la enorme importancia que revisten las nubes para el tiempo, el clima y el agua.https://www.youtube.com/watch?v=BazVcoxsscw&feature=youtu.behttps://public.wmo.int/es/D%C3%ADa-Meteorol%C3%B3gico-Mundial-2017

Productos aeronáuticos

  • SIGMET
  • METAR / SPECI
  • TAF
  • AIREP
  • Aviso de aeródromo
  • Pronárea
  • Carta superficie
Fecha : 29/03/2017
FTUY 01 SUMU 29 23 30
SUMU TAF 292330Z 3000/3024 09016KT 9999 FEW026 SCT070 TX26/3018Z TN18/3010Z TEMPO 3000/3008 06020G30KT CAVOK BECMG 3010/3014 04020KT 9999 SCT020=
SULS TAF 292330Z 3000/3024 09016KT 9999 FEW026 SCT070 TX25/3018Z TN18/3010Z TEMPO 3000/3008 06020G30KT CAVOK BECMG 3010/3014 04020KT 9999 SCT020 PROB30 TEMPO 3010/3020 8000 RA BKN015=
SUAA TAF 292330Z 3000/3024 09016KT 9999 FEW026 SCT070 TX26/3018Z TN18/3010Z TEMPO 3000/3008 06020G30KT CAVOK BECMG 3010/3014 04020KT 9999 SCT020=
SUCA TAF 292330Z 3000/3024 09016KT 9999 FEW026 SCT070 TX26/3018Z TN18/3010Z TEMPO 3000/3008 06020G30KT CAVOK BECMG 3010/3014 04020KT 9999 SCT020=
SUDU TAF 292330Z 3000/3024 07010KT CAVOK TX29/3018Z TN16/3010Z TEMPO 3000/3008 06020G30KT BECMG 3009/3013 05020KT 9999 SCT015=
SUSO TAF 292330Z 3000/3024 06015KT 9999 SCT030 TX30/3018Z TN19/3010Z TEMPO 3000/3008 08020KT CAVOK =
SURV TAF 292330Z 3000/3024 06015KT 9999 SCT030 TX30/3018Z TN19/3010Z TEMPO 3000/3008 08020KT CAVOK =

Predictor : Ines Rodriguez


Mensajes TAF vigentes - Internacionales


Argentina
TAF SAAR 292300Z 3000/3024 07010KT CAVOK TX32/3018Z TN21/3009Z BECMG 3006/3008 07010KT 6000 SCT025 BECMG 3011/3013 02015KT CAVOK
TAF SABE 292300Z 3000/3024 11015KT 9999 FEW020 TX26/3018Z TN21/3009Z BECMG 3001/3003 05015G25KT SCT020 BECMG 3005/3007 05020G30KT BKN025 BECMG 3012/3014 05015KT SCT025 SCT100 BECMG 3017/3019 12015KT SCT020
TAF SACO 292300Z 3000/3024 07010KT 9999 SCT020 FEW030TCU TX25/3018Z TN17/3010Z PROB30 TEMPO 3001/3005 34005KT 7000 VCTS BKN020 FEW030CB BECMG 3008/3012 36005KT 4000 BR SCT020 BECMG 3014/3018 05010G15KT 9999 BKN025 SCT035TCU PROB40 TEMPO 3015/3019 09010KT 3000 SHRA VCTS FEW010 OVC020 FEW030CB
TAF SAEZ 292300Z 3000/3024 08015KT CAVOK TX28/3019Z TN18/3010Z TEMPO 3000/3008 08015G25KT BECMG 3008/3010 03015KT 9999 SCT015 BECMG 3015/3018 09010KT CAVOK
TAF SAME 292300Z 3000/3024 14005KT SCT030 SCT040 TX24/3020Z TN16/3010Z
Bolivia
TAF SLLP 292250Z 3000/3024 07005KT 9999 SCT015 FEW017CB TX14/3020Z TN04/3010Z BECMG 3001/3004 3000E VCFG FEW002 SCT010 FEW017CB TEMPO 3006/3009 7000 RA BKN070 BECMG 3012/3015 9999 NSW FEW009 SCT015 TEMPO 3017/3020 15010KT SCT017 FEW020CB
Brasil
TAF COR SBBR 302200Z 3000/3024 21015KT 6000 TSRA SCT015 FEW030CB TN18 /3008Z TX26/3018Z FM300330 00000KT 9999 NSW SCT015 FM300630 20008KT 3000 BR BKN005 FM301230 11009KT 9999 SCT020 FM301530 36010KT 9999 SCT030 FEW035TCU FM301800 VRB12KT 9999 TS VCSH SCT030 FEW035CB FM302330 VRB05KT 9999 NSW FEW030 FEW035TCU RMK PDF
TAF AMD SBGR 300105Z 3002/3106 08005KT 9999 BKN020 TX23/3017Z TN13/3106Z TEMPO 3003/3008 BKN012 PROB30 3009/3011 5000 BR BKN008 BECMG 3011/3013 BKN030 BECMG 3016/3018 15010KT SCT035 BECMG 3021/3023 BKN015 BECMG 3100/3102 10003KT 8000 FEW020 BECMG 3103/3105 6000 SCT008 RMK PGN
TAF AMD SBSP 300105Z 3002/3024 12005KT 9999 BKN020 TN16/3009Z TX23/3017Z TEMPO 3002/3007 BKN010 BECMG 3010/3012 FEW025 BECMG 3013/3015 14010KT SCT030 BECMG 3020/3022 BKN015 RMK PGN
TAF SBFL 292100Z 3000/3024 14008KT 9999 SCT030 TN20/3009Z TX26/3018Z PROB40 3000/3002 5000 RA BR BKN010 BKN020 PROB40 3006/3012 6000 RA BKN020 B KN030 RMK PDJ
TAF SBPA 292100Z 3000/3024 10008KT CAVOK TN17/3008Z TX28/3018Z PROB30 3009/3011 00000KT 2000 BR SCT002 BECMG 3014/3016 11012KT 9999 SCT040 BECMG 3020/3022 10005KT CAVOK RMK PDJ
TAF SBFI 292100Z 3000/3024 10006KT CAVOK TN20/3009Z TX31/3018Z TEMPO 3012/3018 06008KT RMK PDJ
TAF SBRJ 292100Z 3000/3012 16005KT 7000 SCT017TN22/3008Z TX26/3012Z BECMG 3000/3002 33005KT BECMG 3009/3011 36005KT RMK PGT
Colombia
TAF SKBO 292300Z 3000/3024 26007KT 9000 SCT020 SCT200 TEMPO 3000/3004 7000 TSRA SCT018CB TEMPO 3005/3008 8000 RA SCT017CB TEMPO 3008/3014 5000 DZ BR SCT015 TEMPO 3017/3021 7000 SHRA SCT018CB TX20/3018Z TN09/3011Z
Chile
TAF COR SCEL 292303Z 3000/3024 21010KT 9999 FEW060 SCT100 TX26/2919Z TN10/3010Z BECMG 3001/3002 16004KT BECMG 3004/3006 VRB02KT FEW070 BECMG 3006/3008 CAVOK TEMPO 3008/3012 00000KT 5000 BR NSC BECMG 3012/ 3014 17005KT BECMG 3019/3021 21012KT
TAF SCCI 292241Z 3000/3100 24010KT 9000 FEW015 SCT040 TN04/3010Z TX12/3018Z BECMG 3000/3002 20007KT BECMG 3002/3004 6000 BR DZ FEW005 SCT012 PROB40 TEMPO 3006/3012 VRB03KT 2000 BR DZ SCT004 BKN010 BECMG 3014/3016 18005KT FEW030
Ecuador
SEQM 292238Z 3000/3024 03003KT 9999 SCT008 BKN020 FM300700 00000KT 5000 BR SCT008 BKN020 FM301200 VRB03KT 9999 SCT030 OVC070 FM301800 35010KT 9999 BKN030 BKN070 TEMPO 3018/3020 SHRA TX21/3017Z TN11/3011Z
EEUU
KLGA 300141Z 3002/3024 35013G20KT P6SM FEW050 FM300400 35010KT P6SM SKC FM301200 02007KT P6SM SCT200 FM301900 19007KT P6SM FEW060 BKN150
KJFK 300141Z 3002/3106 35014G20KT P6SM FEW050 FM300400 35010KT P6SM SKC FM301200 01007KT P6SM SCT200 FM301700 19007KT P6SM FEW060 BKN150 FM310500 15006KT P6SM BKN060 OVC100
KIAD 292337Z 3000/3106 36006KT P6SM SCT250 FM300800 03004KT P6SM BKN050 FM301400 10005KT P6SM BKN040 FM310300 15008KT P6SM OVC030
KDCA 292337Z 3000/3024 02008KT P6SM SCT250 FM301000 05004KT P6SM BKN050 FM301600 11006KT P6SM BKN040
KMIA 292334Z 3000/3024 12005KT P6SM FEW035 FM300200 VRB02KT P6SM SKC FM301400 14010KT P6SM FEW035 FM301700 14015KT P6SM SCT035
España
TAF LEBL 292300Z 3000/3024 22008KT 9999 FEW030 TX19/3013Z TN10/3006Z TEMPO 3000/3006 32010KT
TAF LEMD 292300Z 3000/3106 VRB05KT CAVOK TX22/3016Z TN04/3006Z BECMG 3011/3013 18008G20KT BECMG 3019/3021 VRB05KT PROB30 TEMPO 3021/3106 16005G15KT
Francia
TAF LFPO 292300Z 3000/3106 VRB03KT CAVOK BECMG 3010/3012 16008KT
Inglaterra
TAF EGLL 292253Z 3000/3106 19008KT 9999 SCT040
Panamá
TAF MPTO 292200Z 3000/3106 19005KT 9999 FEW018 TEMPO 3008/3012 00000KT TEMPO 3013/3017 05006KT
Paraguay
TAF SGAS 292250Z 3000/3100 VRB05KT CAVOK TX34/3019Z TN22/3010Z BECMG 3014/3017 05010KT 9999 SCT033
Venezuela
TAF SVMI 292200Z 3000/3100 14010KT 9999 SCT016 TX32/18Z TN23/09Z BECMG 3000/3004 09005KT 9000 VCDZ BKN016

* Datos extraidos del Text DataServer de la NOAA (NOAA TEXT DATA SERVER)

Instituto Uruguayo de Meteorología

Dr. Javier Barrios Amorín 1488 - CP 11200
1895 int 108

Montevideo - Uruguay